KHBG/HBG METAR and TAF weather

Enter ICAO airport designator
Station Type Date Time Source
KHBG METAR 2018/12/17 02:53 UTC NOAA

KHBG 170253Z AUTO 00000KT 10SM CLR 08/07 A3028 RMK AO2 SLP253 T00780067 51007


Station Type Date Time Source
KHBG Decoded METAR 2018/12/17 02:53 UTC NOAA

HATTIESBURG CHAIN MUNICIPAL, MS, United States (KHBG) 31-16N 89-15W 44M
Dec 16, 2018 - 09:53 PM EST / 2018.12.17 0253 UTC
Wind: Calm:0
Visibility: 10 mile(s):0
Sky conditions: clear
Temperature: 46.0 F (7.8 C)
Dew Point: 44.1 F (6.7 C)
Relative Humidity: 92%
Pressure (altimeter): 30.28 in. Hg (1025 hPa)
Pressure tendency: 0.02 inches (0.7 hPa) higher than three hours ago
ob: KHBG 170253Z AUTO 00000KT 10SM CLR 08/07 A3028 RMK AO2 SLP253 T00780067 51007
cycle: 3

Station Type Date Time Source
KHBG TAF 2018/12/16 18:30 UTC NOAA

TAF KHBG 161727Z 1618/1718 35005KT P6SM BKN015
FM162100 35005KT P6SM SCT025 BKN250
FM170800 00000KT 4SM BR BKN003
FM171100 00000KT 1/4SM FG VV002
FM171400 00000KT 4SM BR SCT003 SCT250
FM171600 VRB03KT P6SM SCT250


Example: see airport list